sensor_id;sensor_type;location;lat;lon;timestamp;P1;durP1;ratioP1;P2;durP2;ratioP2
7575;SDS011;3829;50.798;4.358;2022-12-07T00:03:37;22.37;;;14.73;;
7575;SDS011;3829;50.798;4.358;2022-12-07T00:06:04;22.33;;;13.90;;
7575;SDS011;3829;50.798;4.358;2022-12-07T00:08:30;26.43;;;13.77;;
7575;SDS011;3829;50.798;4.358;2022-12-07T00:11:16;24.73;;;14.10;;
7575;SDS011;3829;50.798;4.358;2022-12-07T00:13:46;18.70;;;13.17;;
7575;SDS011;3829;50.798;4.358;2022-12-07T00:16:17;25.37;;;13.90;;
7575;SDS011;3829;50.798;4.358;2022-12-07T00:18:45;21.93;;;14.13;;
7575;SDS011;3829;50.798;4.358;2022-12-07T00:23:45;25.17;;;15.07;;
7575;SDS011;3829;50.798;4.358;2022-12-07T00:28:48;25.57;;;14.33;;
7575;SDS011;3829;50.798;4.358;2022-12-07T00:31:16;23.70;;;14.77;;
7575;SDS011;3829;50.798;4.358;2022-12-07T00:33:43;25.87;;;15.77;;
7575;SDS011;3829;50.798;4.358;2022-12-07T00:36:10;27.40;;;15.43;;
7575;SDS011;3829;50.798;4.358;2022-12-07T00:38:37;21.60;;;14.57;;
7575;SDS011;3829;50.798;4.358;2022-12-07T00:41:05;26.43;;;14.93;;
7575;SDS011;3829;50.798;4.358;2022-12-07T00:43:37;26.57;;;14.57;;
7575;SDS011;3829;50.798;4.358;2022-12-07T00:46:02;21.13;;;14.53;;
7575;SDS011;3829;50.798;4.358;2022-12-07T00:48:29;22.97;;;13.70;;
7575;SDS011;3829;50.798;4.358;2022-12-07T00:50:55;22.40;;;14.37;;
7575;SDS011;3829;50.798;4.358;2022-12-07T00:53:20;25.63;;;14.53;;
7575;SDS011;3829;50.798;4.358;2022-12-07T00:55:46;23.60;;;15.43;;
7575;SDS011;3829;50.798;4.358;2022-12-07T00:58:12;24.60;;;15.00;;
7575;SDS011;3829;50.798;4.358;2022-12-07T01:00:39;28.27;;;15.20;;
7575;SDS011;3829;50.798;4.358;2022-12-07T01:03:07;25.23;;;14.23;;
7575;SDS011;3829;50.798;4.358;2022-12-07T01:05:34;19.33;;;13.73;;
7575;SDS011;3829;50.798;4.358;2022-12-07T01:08:00;22.60;;;13.67;;
7575;SDS011;3829;50.798;4.358;2022-12-07T01:10:26;23.67;;;14.80;;
7575;SDS011;3829;50.798;4.358;2022-12-07T01:12:52;24.33;;;15.27;;
7575;SDS011;3829;50.798;4.358;2022-12-07T01:15:18;24.37;;;15.10;;
7575;SDS011;3829;50.798;4.358;2022-12-07T01:17:44;23.27;;;14.57;;
7575;SDS011;3829;50.798;4.358;2022-12-07T01:20:10;23.77;;;14.37;;
7575;SDS011;3829;50.798;4.358;2022-12-07T01:22:43;26.60;;;14.87;;
7575;SDS011;3829;50.798;4.358;2022-12-07T01:25:09;23.13;;;13.50;;
7575;SDS011;3829;50.798;4.358;2022-12-07T01:27:36;21.43;;;15.00;;
7575;SDS011;3829;50.798;4.358;2022-12-07T01:30:03;22.87;;;14.70;;
7575;SDS011;3829;50.798;4.358;2022-12-07T01:32:30;23.23;;;14.67;;
7575;SDS011;3829;50.798;4.358;2022-12-07T01:34:56;27.23;;;14.63;;
7575;SDS011;3829;50.798;4.358;2022-12-07T01:37:21;23.70;;;14.37;;
7575;SDS011;3829;50.798;4.358;2022-12-07T01:39:50;25.43;;;14.83;;
7575;SDS011;3829;50.798;4.358;2022-12-07T01:42:16;22.40;;;14.10;;
7575;SDS011;3829;50.798;4.358;2022-12-07T01:47:43;22.13;;;14.07;;
7575;SDS011;3829;50.798;4.358;2022-12-07T01:50:15;19.07;;;12.73;;
7575;SDS011;3829;50.798;4.358;2022-12-07T01:52:41;23.00;;;14.20;;
7575;SDS011;3829;50.798;4.358;2022-12-07T01:55:11;24.33;;;13.87;;
7575;SDS011;3829;50.798;4.358;2022-12-07T01:57:39;19.80;;;12.87;;
7575;SDS011;3829;50.798;4.358;2022-12-07T02:00:08;18.73;;;12.87;;
7575;SDS011;3829;50.798;4.358;2022-12-07T02:02:42;19.10;;;12.53;;
7575;SDS011;3829;50.798;4.358;2022-12-07T02:05:20;24.90;;;13.73;;
7575;SDS011;3829;50.798;4.358;2022-12-07T02:07:49;24.60;;;13.80;;
7575;SDS011;3829;50.798;4.358;2022-12-07T02:12:46;23.73;;;13.87;;
7575;SDS011;3829;50.798;4.358;2022-12-07T02:15:14;24.53;;;14.67;;
7575;SDS011;3829;50.798;4.358;2022-12-07T02:17:45;22.70;;;13.67;;
7575;SDS011;3829;50.798;4.358;2022-12-07T02:23:56;22.67;;;13.40;;
7575;SDS011;3829;50.798;4.358;2022-12-07T02:35:03;20.37;;;13.43;;
7575;SDS011;3829;50.798;4.358;2022-12-07T02:40:02;22.93;;;13.67;;
7575;SDS011;3829;50.798;4.358;2022-12-07T02:42:51;17.20;;;12.67;;
7575;SDS011;3829;50.798;4.358;2022-12-07T02:45:22;21.07;;;13.77;;
7575;SDS011;3829;50.798;4.358;2022-12-07T02:47:51;24.50;;;13.83;;
7575;SDS011;3829;50.798;4.358;2022-12-07T02:50:20;20.07;;;12.87;;
7575;SDS011;3829;50.798;4.358;2022-12-07T02:52:46;24.53;;;14.17;;
7575;SDS011;3829;50.798;4.358;2022-12-07T02:55:12;19.67;;;12.77;;
7575;SDS011;3829;50.798;4.358;2022-12-07T03:00:16;20.10;;;13.77;;
7575;SDS011;3829;50.798;4.358;2022-12-07T03:02:50;31.17;;;14.57;;
7575;SDS011;3829;50.798;4.358;2022-12-07T03:10:41;19.63;;;12.87;;
7575;SDS011;3829;50.798;4.358;2022-12-07T03:16:21;23.33;;;13.23;;
7575;SDS011;3829;50.798;4.358;2022-12-07T03:18:53;24.20;;;13.30;;
7575;SDS011;3829;50.798;4.358;2022-12-07T03:21:31;23.37;;;13.53;;
7575;SDS011;3829;50.798;4.358;2022-12-07T03:24:04;20.70;;;12.67;;
7575;SDS011;3829;50.798;4.358;2022-12-07T03:26:35;20.80;;;12.37;;
7575;SDS011;3829;50.798;4.358;2022-12-07T03:29:07;23.50;;;14.13;;
7575;SDS011;3829;50.798;4.358;2022-12-07T03:31:42;20.77;;;12.87;;
7575;SDS011;3829;50.798;4.358;2022-12-07T03:34:17;19.47;;;12.50;;
7575;SDS011;3829;50.798;4.358;2022-12-07T03:37:00;21.17;;;13.27;;
7575;SDS011;3829;50.798;4.358;2022-12-07T03:39:34;19.07;;;12.43;;
7575;SDS011;3829;50.798;4.358;2022-12-07T03:42:07;21.57;;;13.20;;
7575;SDS011;3829;50.798;4.358;2022-12-07T03:44:34;19.67;;;12.77;;
7575;SDS011;3829;50.798;4.358;2022-12-07T03:47:22;21.47;;;12.20;;
7575;SDS011;3829;50.798;4.358;2022-12-07T03:50:09;19.70;;;12.67;;
7575;SDS011;3829;50.798;4.358;2022-12-07T03:52:56;25.50;;;13.30;;
7575;SDS011;3829;50.798;4.358;2022-12-07T03:55:31;20.47;;;12.97;;
7575;SDS011;3829;50.798;4.358;2022-12-07T03:58:05;20.10;;;12.77;;
7575;SDS011;3829;50.798;4.358;2022-12-07T04:00:34;24.97;;;13.83;;
7575;SDS011;3829;50.798;4.358;2022-12-07T04:03:00;22.80;;;13.63;;
7575;SDS011;3829;50.798;4.358;2022-12-07T04:05:26;24.00;;;13.83;;
7575;SDS011;3829;50.798;4.358;2022-12-07T04:07:52;29.27;;;13.50;;
7575;SDS011;3829;50.798;4.358;2022-12-07T04:10:18;22.57;;;12.63;;
7575;SDS011;3829;50.798;4.358;2022-12-07T04:12:43;18.83;;;12.93;;
7575;SDS011;3829;50.798;4.358;2022-12-07T04:15:09;22.53;;;12.60;;
7575;SDS011;3829;50.798;4.358;2022-12-07T04:17:35;18.83;;;12.70;;
7575;SDS011;3829;50.798;4.358;2022-12-07T04:20:01;22.33;;;13.30;;
7575;SDS011;3829;50.798;4.358;2022-12-07T04:22:28;22.67;;;12.57;;
7575;SDS011;3829;50.798;4.358;2022-12-07T04:24:54;19.30;;;12.43;;
7575;SDS011;3829;50.798;4.358;2022-12-07T04:27:20;21.03;;;12.43;;
7575;SDS011;3829;50.798;4.358;2022-12-07T04:29:45;17.23;;;12.40;;
7575;SDS011;3829;50.798;4.358;2022-12-07T04:32:11;22.07;;;13.40;;
7575;SDS011;3829;50.798;4.358;2022-12-07T04:34:37;24.27;;;13.70;;
7575;SDS011;3829;50.798;4.358;2022-12-07T04:37:02;23.50;;;13.23;;
7575;SDS011;3829;50.798;4.358;2022-12-07T04:39:29;20.23;;;14.20;;
7575;SDS011;3829;50.798;4.358;2022-12-07T04:41:57;23.50;;;15.03;;
7575;SDS011;3829;50.798;4.358;2022-12-07T04:44:23;25.30;;;14.50;;
7575;SDS011;3829;50.798;4.358;2022-12-07T04:46:50;22.57;;;14.70;;
7575;SDS011;3829;50.798;4.358;2022-12-07T04:49:17;19.10;;;13.27;;
7575;SDS011;3829;50.798;4.358;2022-12-07T04:51:43;20.80;;;13.97;;
7575;SDS011;3829;50.798;4.358;2022-12-07T04:54:09;27.07;;;14.23;;
7575;SDS011;3829;50.798;4.358;2022-12-07T04:56:35;21.27;;;13.23;;
7575;SDS011;3829;50.798;4.358;2022-12-07T04:59:02;24.43;;;14.43;;
7575;SDS011;3829;50.798;4.358;2022-12-07T05:01:28;28.93;;;15.17;;
7575;SDS011;3829;50.798;4.358;2022-12-07T05:03:54;22.30;;;14.40;;
7575;SDS011;3829;50.798;4.358;2022-12-07T05:06:19;24.20;;;13.87;;
7575;SDS011;3829;50.798;4.358;2022-12-07T05:08:45;20.60;;;13.20;;
7575;SDS011;3829;50.798;4.358;2022-12-07T05:11:11;23.87;;;14.50;;
7575;SDS011;3829;50.798;4.358;2022-12-07T05:13:56;21.30;;;12.67;;
7575;SDS011;3829;50.798;4.358;2022-12-07T05:16:22;19.47;;;12.90;;
7575;SDS011;3829;50.798;4.358;2022-12-07T05:18:47;18.40;;;12.03;;
7575;SDS011;3829;50.798;4.358;2022-12-07T05:21:13;22.50;;;12.80;;
7575;SDS011;3829;50.798;4.358;2022-12-07T05:23:39;21.13;;;12.60;;
7575;SDS011;3829;50.798;4.358;2022-12-07T05:26:04;21.17;;;12.40;;
7575;SDS011;3829;50.798;4.358;2022-12-07T05:28:30;22.20;;;12.97;;
7575;SDS011;3829;50.798;4.358;2022-12-07T05:30:55;22.87;;;13.73;;
7575;SDS011;3829;50.798;4.358;2022-12-07T05:33:21;31.03;;;14.83;;
7575;SDS011;3829;50.798;4.358;2022-12-07T05:35:46;19.53;;;13.60;;
7575;SDS011;3829;50.798;4.358;2022-12-07T05:38:12;22.00;;;13.03;;
7575;SDS011;3829;50.798;4.358;2022-12-07T05:40:38;18.17;;;13.40;;
7575;SDS011;3829;50.798;4.358;2022-12-07T05:43:03;17.53;;;12.17;;
7575;SDS011;3829;50.798;4.358;2022-12-07T05:45:29;20.80;;;13.13;;
7575;SDS011;3829;50.798;4.358;2022-12-07T05:47:54;22.40;;;13.40;;
7575;SDS011;3829;50.798;4.358;2022-12-07T05:50:20;24.70;;;14.00;;
7575;SDS011;3829;50.798;4.358;2022-12-07T05:52:46;20.47;;;13.67;;
7575;SDS011;3829;50.798;4.358;2022-12-07T05:55:12;19.40;;;13.07;;
7575;SDS011;3829;50.798;4.358;2022-12-07T05:57:38;23.57;;;13.10;;
7575;SDS011;3829;50.798;4.358;2022-12-07T06:00:04;21.10;;;13.33;;
7575;SDS011;3829;50.798;4.358;2022-12-07T06:02:30;20.37;;;14.33;;
7575;SDS011;3829;50.798;4.358;2022-12-07T06:04:56;26.57;;;12.97;;
7575;SDS011;3829;50.798;4.358;2022-12-07T06:07:21;18.40;;;12.80;;
7575;SDS011;3829;50.798;4.358;2022-12-07T06:09:47;23.13;;;13.30;;
7575;SDS011;3829;50.798;4.358;2022-12-07T06:12:13;18.80;;;13.23;;
7575;SDS011;3829;50.798;4.358;2022-12-07T06:14:57;20.97;;;13.27;;
7575;SDS011;3829;50.798;4.358;2022-12-07T06:17:23;22.47;;;13.27;;
7575;SDS011;3829;50.798;4.358;2022-12-07T06:19:49;27.70;;;14.87;;
7575;SDS011;3829;50.798;4.358;2022-12-07T06:22:15;21.77;;;13.37;;
7575;SDS011;3829;50.798;4.358;2022-12-07T06:24:41;22.63;;;13.77;;
7575;SDS011;3829;50.798;4.358;2022-12-07T06:27:07;21.80;;;14.20;;
7575;SDS011;3829;50.798;4.358;2022-12-07T06:29:33;20.43;;;12.93;;
7575;SDS011;3829;50.798;4.358;2022-12-07T06:31:59;22.53;;;13.73;;
7575;SDS011;3829;50.798;4.358;2022-12-07T06:34:25;24.57;;;13.30;;
7575;SDS011;3829;50.798;4.358;2022-12-07T06:36:51;22.53;;;13.00;;
7575;SDS011;3829;50.798;4.358;2022-12-07T06:39:19;22.60;;;13.33;;
7575;SDS011;3829;50.798;4.358;2022-12-07T06:41:46;21.37;;;11.90;;
7575;SDS011;3829;50.798;4.358;2022-12-07T06:44:12;19.70;;;11.90;;
7575;SDS011;3829;50.798;4.358;2022-12-07T06:46:38;19.00;;;12.60;;
7575;SDS011;3829;50.798;4.358;2022-12-07T06:49:04;20.13;;;12.47;;
7575;SDS011;3829;50.798;4.358;2022-12-07T06:51:30;19.00;;;12.27;;
7575;SDS011;3829;50.798;4.358;2022-12-07T06:53:56;17.17;;;12.53;;
7575;SDS011;3829;50.798;4.358;2022-12-07T06:56:22;18.73;;;12.80;;
7575;SDS011;3829;50.798;4.358;2022-12-07T06:58:48;19.90;;;11.70;;
7575;SDS011;3829;50.798;4.358;2022-12-07T07:01:14;18.90;;;11.87;;
7575;SDS011;3829;50.798;4.358;2022-12-07T07:03:42;20.37;;;12.17;;
7575;SDS011;3829;50.798;4.358;2022-12-07T07:06:08;20.97;;;10.87;;
7575;SDS011;3829;50.798;4.358;2022-12-07T07:08:35;22.17;;;12.87;;
7575;SDS011;3829;50.798;4.358;2022-12-07T07:11:02;18.00;;;11.43;;
7575;SDS011;3829;50.798;4.358;2022-12-07T07:13:28;18.47;;;11.57;;
7575;SDS011;3829;50.798;4.358;2022-12-07T07:15:54;17.87;;;11.03;;
7575;SDS011;3829;50.798;4.358;2022-12-07T07:18:20;18.73;;;11.70;;
7575;SDS011;3829;50.798;4.358;2022-12-07T07:20:46;20.63;;;11.37;;
7575;SDS011;3829;50.798;4.358;2022-12-07T07:23:11;14.30;;;10.70;;
7575;SDS011;3829;50.798;4.358;2022-12-07T07:25:37;21.07;;;10.67;;
7575;SDS011;3829;50.798;4.358;2022-12-07T07:28:03;14.43;;;9.77;;
7575;SDS011;3829;50.798;4.358;2022-12-07T07:30:30;19.53;;;11.80;;
7575;SDS011;3829;50.798;4.358;2022-12-07T07:32:59;21.73;;;12.03;;
7575;SDS011;3829;50.798;4.358;2022-12-07T07:35:26;18.37;;;11.37;;
7575;SDS011;3829;50.798;4.358;2022-12-07T07:37:53;17.73;;;11.23;;
7575;SDS011;3829;50.798;4.358;2022-12-07T07:40:19;20.73;;;12.53;;
7575;SDS011;3829;50.798;4.358;2022-12-07T07:42:48;20.33;;;11.13;;
7575;SDS011;3829;50.798;4.358;2022-12-07T07:45:18;20.83;;;11.90;;
7575;SDS011;3829;50.798;4.358;2022-12-07T07:47:45;18.73;;;11.73;;
7575;SDS011;3829;50.798;4.358;2022-12-07T07:50:10;16.13;;;11.80;;
7575;SDS011;3829;50.798;4.358;2022-12-07T07:52:36;16.10;;;12.03;;
7575;SDS011;3829;50.798;4.358;2022-12-07T07:55:02;21.57;;;12.50;;
7575;SDS011;3829;50.798;4.358;2022-12-07T07:57:29;18.60;;;11.93;;
7575;SDS011;3829;50.798;4.358;2022-12-07T07:59:54;21.27;;;11.97;;
7575;SDS011;3829;50.798;4.358;2022-12-07T08:02:20;23.43;;;13.27;;
7575;SDS011;3829;50.798;4.358;2022-12-07T08:04:47;18.03;;;12.27;;
7575;SDS011;3829;50.798;4.358;2022-12-07T08:07:12;23.70;;;13.13;;
7575;SDS011;3829;50.798;4.358;2022-12-07T08:09:39;19.03;;;11.87;;
7575;SDS011;3829;50.798;4.358;2022-12-07T08:12:08;21.90;;;12.80;;
7575;SDS011;3829;50.798;4.358;2022-12-07T08:14:33;20.13;;;12.70;;
7575;SDS011;3829;50.798;4.358;2022-12-07T08:16:59;21.13;;;11.73;;
7575;SDS011;3829;50.798;4.358;2022-12-07T08:19:25;21.43;;;12.70;;
7575;SDS011;3829;50.798;4.358;2022-12-07T08:21:51;20.53;;;11.60;;
7575;SDS011;3829;50.798;4.358;2022-12-07T08:24:16;20.53;;;13.07;;
7575;SDS011;3829;50.798;4.358;2022-12-07T08:26:42;20.00;;;12.80;;
7575;SDS011;3829;50.798;4.358;2022-12-07T08:29:08;18.93;;;12.87;;
7575;SDS011;3829;50.798;4.358;2022-12-07T08:31:34;28.93;;;13.63;;
7575;SDS011;3829;50.798;4.358;2022-12-07T08:34:00;27.53;;;14.20;;
7575;SDS011;3829;50.798;4.358;2022-12-07T08:36:26;30.07;;;14.43;;
7575;SDS011;3829;50.798;4.358;2022-12-07T08:38:51;19.40;;;12.60;;
7575;SDS011;3829;50.798;4.358;2022-12-07T08:41:17;20.77;;;13.60;;
7575;SDS011;3829;50.798;4.358;2022-12-07T08:43:43;20.73;;;12.40;;
7575;SDS011;3829;50.798;4.358;2022-12-07T08:46:10;27.20;;;13.83;;
7575;SDS011;3829;50.798;4.358;2022-12-07T08:48:40;26.97;;;12.57;;
7575;SDS011;3829;50.798;4.358;2022-12-07T08:51:16;30.57;;;13.30;;
7575;SDS011;3829;50.798;4.358;2022-12-07T08:53:42;19.83;;;13.73;;
7575;SDS011;3829;50.798;4.358;2022-12-07T08:56:08;24.20;;;14.57;;
7575;SDS011;3829;50.798;4.358;2022-12-07T08:58:35;23.77;;;13.70;;
7575;SDS011;3829;50.798;4.358;2022-12-07T09:34:24;16.43;;;9.47;;
7575;SDS011;3829;50.798;4.358;2022-12-07T09:36:51;16.60;;;8.37;;
7575;SDS011;3829;50.798;4.358;2022-12-07T09:39:17;15.80;;;9.23;;
7575;SDS011;3829;50.798;4.358;2022-12-07T09:41:43;16.60;;;9.27;;
7575;SDS011;3829;50.798;4.358;2022-12-07T09:44:12;20.63;;;8.67;;
7575;SDS011;3829;50.798;4.358;2022-12-07T09:46:41;19.77;;;9.43;;
7575;SDS011;3829;50.798;4.358;2022-12-07T09:49:16;16.87;;;9.30;;
7575;SDS011;3829;50.798;4.358;2022-12-07T09:51:45;15.40;;;8.83;;
7575;SDS011;3829;50.798;4.358;2022-12-07T09:54:15;14.40;;;8.17;;
7575;SDS011;3829;50.798;4.358;2022-12-07T09:56:42;18.57;;;8.80;;
7575;SDS011;3829;50.798;4.358;2022-12-07T09:59:09;14.40;;;8.57;;
7575;SDS011;3829;50.798;4.358;2022-12-07T10:01:43;17.97;;;8.03;;
7575;SDS011;3829;50.798;4.358;2022-12-07T16:28:26;6.27;;;5.00;;
7575;SDS011;3829;50.798;4.358;2022-12-07T16:30:59;11.10;;;5.83;;
7575;SDS011;3829;50.798;4.358;2022-12-07T16:33:26;14.37;;;5.30;;
7575;SDS011;3829;50.798;4.358;2022-12-07T16:35:51;9.57;;;5.63;;
7575;SDS011;3829;50.798;4.358;2022-12-07T16:38:17;8.77;;;5.43;;
7575;SDS011;3829;50.798;4.358;2022-12-07T16:40:43;7.50;;;5.23;;
7575;SDS011;3829;50.798;4.358;2022-12-07T16:43:09;12.30;;;5.47;;
7575;SDS011;3829;50.798;4.358;2022-12-07T16:45:38;8.73;;;5.43;;
7575;SDS011;3829;50.798;4.358;2022-12-07T16:48:03;8.40;;;5.17;;
7575;SDS011;3829;50.798;4.358;2022-12-07T16:50:29;8.13;;;5.30;;
7575;SDS011;3829;50.798;4.358;2022-12-07T16:52:55;13.57;;;5.03;;
7575;SDS011;3829;50.798;4.358;2022-12-07T16:55:21;8.27;;;5.23;;
7575;SDS011;3829;50.798;4.358;2022-12-07T16:57:46;14.53;;;5.83;;
7575;SDS011;3829;50.798;4.358;2022-12-07T17:00:12;9.97;;;5.80;;
7575;SDS011;3829;50.798;4.358;2022-12-07T17:02:38;9.80;;;5.47;;
7575;SDS011;3829;50.798;4.358;2022-12-07T17:05:03;9.43;;;5.20;;
7575;SDS011;3829;50.798;4.358;2022-12-07T17:07:29;10.93;;;5.23;;
7575;SDS011;3829;50.798;4.358;2022-12-07T17:09:55;7.93;;;5.60;;
7575;SDS011;3829;50.798;4.358;2022-12-07T17:12:20;8.30;;;5.23;;
7575;SDS011;3829;50.798;4.358;2022-12-07T17:14:46;9.97;;;5.30;;
7575;SDS011;3829;50.798;4.358;2022-12-07T17:17:30;9.20;;;5.43;;
7575;SDS011;3829;50.798;4.358;2022-12-07T17:19:56;10.17;;;5.63;;
7575;SDS011;3829;50.798;4.358;2022-12-07T17:22:22;8.07;;;4.97;;
7575;SDS011;3829;50.798;4.358;2022-12-07T17:24:47;9.40;;;6.20;;
7575;SDS011;3829;50.798;4.358;2022-12-07T17:27:13;9.43;;;6.20;;
7575;SDS011;3829;50.798;4.358;2022-12-07T17:29:38;10.23;;;5.47;;
7575;SDS011;3829;50.798;4.358;2022-12-07T17:32:04;10.83;;;5.57;;
7575;SDS011;3829;50.798;4.358;2022-12-07T17:34:30;12.87;;;6.10;;
7575;SDS011;3829;50.798;4.358;2022-12-07T17:36:55;11.30;;;6.27;;
7575;SDS011;3829;50.798;4.358;2022-12-07T17:39:21;11.43;;;5.60;;
7575;SDS011;3829;50.798;4.358;2022-12-07T17:41:47;11.30;;;5.87;;
7575;SDS011;3829;50.798;4.358;2022-12-07T17:44:31;10.30;;;6.13;;
7575;SDS011;3829;50.798;4.358;2022-12-07T17:46:57;10.40;;;5.97;;
7575;SDS011;3829;50.798;4.358;2022-12-07T17:49:24;10.70;;;6.80;;
7575;SDS011;3829;50.798;4.358;2022-12-07T17:51:50;10.60;;;6.77;;
7575;SDS011;3829;50.798;4.358;2022-12-07T17:54:34;10.90;;;7.07;;
7575;SDS011;3829;50.798;4.358;2022-12-07T17:57:00;15.03;;;7.43;;
7575;SDS011;3829;50.798;4.358;2022-12-07T17:59:26;13.53;;;7.17;;
7575;SDS011;3829;50.798;4.358;2022-12-07T18:01:52;10.87;;;7.43;;
7575;SDS011;3829;50.798;4.358;2022-12-07T18:04:17;11.00;;;7.57;;
7575;SDS011;3829;50.798;4.358;2022-12-07T18:06:43;17.07;;;8.07;;
7575;SDS011;3829;50.798;4.358;2022-12-07T18:09:10;11.77;;;8.60;;
7575;SDS011;3829;50.798;4.358;2022-12-07T18:11:35;9.03;;;7.70;;
7575;SDS011;3829;50.798;4.358;2022-12-07T18:14:01;14.73;;;8.60;;
7575;SDS011;3829;50.798;4.358;2022-12-07T18:16:28;15.23;;;9.23;;
7575;SDS011;3829;50.798;4.358;2022-12-07T18:18:57;13.07;;;8.90;;
7575;SDS011;3829;50.798;4.358;2022-12-07T18:21:25;17.83;;;9.20;;
7575;SDS011;3829;50.798;4.358;2022-12-07T18:23:53;17.57;;;9.13;;
7575;SDS011;3829;50.798;4.358;2022-12-07T18:26:20;18.10;;;10.37;;
7575;SDS011;3829;50.798;4.358;2022-12-07T18:28:47;16.87;;;10.87;;
7575;SDS011;3829;50.798;4.358;2022-12-07T18:31:13;19.90;;;11.07;;
7575;SDS011;3829;50.798;4.358;2022-12-07T18:33:39;18.03;;;10.37;;
7575;SDS011;3829;50.798;4.358;2022-12-07T18:36:06;15.57;;;10.63;;
7575;SDS011;3829;50.798;4.358;2022-12-07T18:38:32;17.13;;;10.97;;
7575;SDS011;3829;50.798;4.358;2022-12-07T18:40:59;14.00;;;10.57;;
7575;SDS011;3829;50.798;4.358;2022-12-07T18:43:25;23.03;;;11.23;;
7575;SDS011;3829;50.798;4.358;2022-12-07T18:45:51;18.00;;;11.23;;
7575;SDS011;3829;50.798;4.358;2022-12-07T18:48:17;18.00;;;11.27;;
7575;SDS011;3829;50.798;4.358;2022-12-07T18:50:45;15.70;;;10.13;;
7575;SDS011;3829;50.798;4.358;2022-12-07T18:53:11;14.83;;;10.17;;
7575;SDS011;3829;50.798;4.358;2022-12-07T18:55:37;18.93;;;10.20;;
7575;SDS011;3829;50.798;4.358;2022-12-07T18:58:03;16.03;;;10.70;;
7575;SDS011;3829;50.798;4.358;2022-12-07T19:00:29;19.60;;;10.47;;
7575;SDS011;3829;50.798;4.358;2022-12-07T19:02:59;22.13;;;10.50;;
7575;SDS011;3829;50.798;4.358;2022-12-07T19:05:26;16.50;;;10.93;;
7575;SDS011;3829;50.798;4.358;2022-12-07T19:07:52;25.87;;;12.43;;
7575;SDS011;3829;50.798;4.358;2022-12-07T19:10:18;21.27;;;11.37;;
7575;SDS011;3829;50.798;4.358;2022-12-07T19:12:45;18.97;;;11.27;;
7575;SDS011;3829;50.798;4.358;2022-12-07T19:15:12;20.23;;;11.87;;
7575;SDS011;3829;50.798;4.358;2022-12-07T19:17:38;18.00;;;11.00;;
7575;SDS011;3829;50.798;4.358;2022-12-07T19:20:05;18.37;;;11.07;;
7575;SDS011;3829;50.798;4.358;2022-12-07T19:22:33;15.93;;;10.37;;
7575;SDS011;3829;50.798;4.358;2022-12-07T19:24:59;17.23;;;9.80;;
7575;SDS011;3829;50.798;4.358;2022-12-07T19:27:25;16.60;;;8.93;;
7575;SDS011;3829;50.798;4.358;2022-12-07T19:29:51;14.63;;;10.03;;
7575;SDS011;3829;50.798;4.358;2022-12-07T19:32:17;18.00;;;8.97;;
7575;SDS011;3829;50.798;4.358;2022-12-07T19:34:43;17.17;;;9.27;;
7575;SDS011;3829;50.798;4.358;2022-12-07T19:37:11;14.03;;;8.87;;
7575;SDS011;3829;50.798;4.358;2022-12-07T19:39:40;12.67;;;8.37;;
7575;SDS011;3829;50.798;4.358;2022-12-07T19:42:07;12.37;;;8.40;;
7575;SDS011;3829;50.798;4.358;2022-12-07T19:44:34;13.27;;;8.70;;
7575;SDS011;3829;50.798;4.358;2022-12-07T19:47:01;13.30;;;8.97;;
7575;SDS011;3829;50.798;4.358;2022-12-07T19:49:29;16.07;;;8.37;;
7575;SDS011;3829;50.798;4.358;2022-12-07T19:51:56;16.70;;;9.10;;
7575;SDS011;3829;50.798;4.358;2022-12-07T19:54:25;13.73;;;9.67;;
7575;SDS011;3829;50.798;4.358;2022-12-07T19:56:52;18.30;;;9.63;;
7575;SDS011;3829;50.798;4.358;2022-12-07T19:59:19;16.37;;;9.43;;
7575;SDS011;3829;50.798;4.358;2022-12-07T20:01:46;17.60;;;10.40;;
7575;SDS011;3829;50.798;4.358;2022-12-07T20:04:13;21.37;;;9.73;;
7575;SDS011;3829;50.798;4.358;2022-12-07T20:06:41;21.70;;;10.30;;
7575;SDS011;3829;50.798;4.358;2022-12-07T20:09:07;17.83;;;10.60;;
7575;SDS011;3829;50.798;4.358;2022-12-07T20:11:34;14.63;;;10.27;;
7575;SDS011;3829;50.798;4.358;2022-12-07T20:14:19;18.30;;;10.17;;
7575;SDS011;3829;50.798;4.358;2022-12-07T20:16:45;17.03;;;9.87;;
7575;SDS011;3829;50.798;4.358;2022-12-07T20:19:12;15.70;;;9.83;;
7575;SDS011;3829;50.798;4.358;2022-12-07T20:21:38;17.37;;;9.27;;
7575;SDS011;3829;50.798;4.358;2022-12-07T20:24:05;18.43;;;9.37;;
7575;SDS011;3829;50.798;4.358;2022-12-07T20:26:34;15.77;;;8.73;;
7575;SDS011;3829;50.798;4.358;2022-12-07T20:29:04;14.73;;;9.10;;
7575;SDS011;3829;50.798;4.358;2022-12-07T20:31:34;13.83;;;8.37;;
7575;SDS011;3829;50.798;4.358;2022-12-07T20:34:00;13.53;;;9.63;;
7575;SDS011;3829;50.798;4.358;2022-12-07T20:36:26;15.50;;;8.93;;
7575;SDS011;3829;50.798;4.358;2022-12-07T20:38:52;15.73;;;9.50;;
7575;SDS011;3829;50.798;4.358;2022-12-07T20:41:17;14.10;;;8.10;;
7575;SDS011;3829;50.798;4.358;2022-12-07T20:44:02;13.93;;;7.67;;
7575;SDS011;3829;50.798;4.358;2022-12-07T20:46:28;13.00;;;7.87;;
7575;SDS011;3829;50.798;4.358;2022-12-07T20:48:56;14.50;;;7.73;;
7575;SDS011;3829;50.798;4.358;2022-12-07T20:51:23;17.83;;;7.70;;
7575;SDS011;3829;50.798;4.358;2022-12-07T20:53:48;15.03;;;8.27;;
7575;SDS011;3829;50.798;4.358;2022-12-07T20:56:17;14.57;;;8.67;;
7575;SDS011;3829;50.798;4.358;2022-12-07T20:58:47;15.63;;;8.40;;
7575;SDS011;3829;50.798;4.358;2022-12-07T21:01:13;10.97;;;7.53;;
7575;SDS011;3829;50.798;4.358;2022-12-07T21:03:39;16.67;;;7.90;;
7575;SDS011;3829;50.798;4.358;2022-12-07T21:06:05;15.77;;;8.57;;
7575;SDS011;3829;50.798;4.358;2022-12-07T21:08:30;12.07;;;8.20;;
7575;SDS011;3829;50.798;4.358;2022-12-07T21:10:56;17.97;;;9.20;;
7575;SDS011;3829;50.798;4.358;2022-12-07T21:13:22;15.23;;;8.47;;
7575;SDS011;3829;50.798;4.358;2022-12-07T21:15:47;16.70;;;8.43;;
7575;SDS011;3829;50.798;4.358;2022-12-07T21:18:13;16.67;;;8.57;;
7575;SDS011;3829;50.798;4.358;2022-12-07T21:20:38;16.90;;;8.87;;
7575;SDS011;3829;50.798;4.358;2022-12-07T21:23:04;13.37;;;7.77;;
7575;SDS011;3829;50.798;4.358;2022-12-07T21:25:30;18.67;;;7.83;;
7575;SDS011;3829;50.798;4.358;2022-12-07T21:27:55;17.10;;;9.30;;
7575;SDS011;3829;50.798;4.358;2022-12-07T21:30:23;17.03;;;8.90;;
7575;SDS011;3829;50.798;4.358;2022-12-07T21:32:49;16.37;;;9.90;;
7575;SDS011;3829;50.798;4.358;2022-12-07T21:35:14;20.83;;;9.87;;
7575;SDS011;3829;50.798;4.358;2022-12-07T21:37:40;21.97;;;10.87;;
7575;SDS011;3829;50.798;4.358;2022-12-07T21:40:06;15.63;;;9.77;;
7575;SDS011;3829;50.798;4.358;2022-12-07T21:42:32;15.97;;;9.97;;
7575;SDS011;3829;50.798;4.358;2022-12-07T21:44:58;16.10;;;9.63;;
7575;SDS011;3829;50.798;4.358;2022-12-07T21:47:23;21.10;;;10.40;;
7575;SDS011;3829;50.798;4.358;2022-12-07T21:49:49;16.50;;;10.33;;
7575;SDS011;3829;50.798;4.358;2022-12-07T21:52:14;19.80;;;11.23;;
7575;SDS011;3829;50.798;4.358;2022-12-07T21:54:40;17.73;;;10.00;;
7575;SDS011;3829;50.798;4.358;2022-12-07T21:57:06;16.33;;;10.40;;
7575;SDS011;3829;50.798;4.358;2022-12-07T21:59:32;20.57;;;11.23;;
7575;SDS011;3829;50.798;4.358;2022-12-07T22:01:57;17.83;;;10.43;;
7575;SDS011;3829;50.798;4.358;2022-12-07T22:04:24;19.87;;;10.90;;
7575;SDS011;3829;50.798;4.358;2022-12-07T22:06:50;16.53;;;10.03;;
7575;SDS011;3829;50.798;4.358;2022-12-07T22:09:17;23.77;;;10.83;;
7575;SDS011;3829;50.798;4.358;2022-12-07T22:11:44;18.00;;;10.83;;
7575;SDS011;3829;50.798;4.358;2022-12-07T22:14:10;21.13;;;11.10;;
7575;SDS011;3829;50.798;4.358;2022-12-07T22:16:54;22.67;;;11.80;;
7575;SDS011;3829;50.798;4.358;2022-12-07T22:19:21;21.10;;;11.10;;
7575;SDS011;3829;50.798;4.358;2022-12-07T22:21:47;18.87;;;11.07;;
7575;SDS011;3829;50.798;4.358;2022-12-07T22:24:13;18.60;;;11.03;;
7575;SDS011;3829;50.798;4.358;2022-12-07T22:26:39;19.23;;;11.80;;
7575;SDS011;3829;50.798;4.358;2022-12-07T22:29:06;21.40;;;11.80;;
7575;SDS011;3829;50.798;4.358;2022-12-07T22:31:32;22.83;;;12.60;;